createdAt,value
2019-02-05T00:00:35.162Z,1015.7
2019-02-05T00:01:18.469Z,1015.63
2019-02-05T00:02:00.042Z,1015.64
2019-02-05T00:12:39.753Z,1015.7
2019-02-05T00:13:25.579Z,1015.65
2019-02-05T00:14:08.548Z,1015.57
2019-02-05T00:14:49.683Z,1015.6
2019-02-05T00:15:32.952Z,1015.6
2019-02-05T00:16:14.068Z,1015.61
2019-02-05T00:16:56.589Z,1015.63
2019-02-05T00:17:37.020Z,1015.66
2019-02-05T00:20:52.871Z,1015.59
2019-02-05T00:21:42.163Z,1015.54
2019-02-05T00:22:31.963Z,1015.58
2019-02-05T00:23:16.419Z,1015.55
2019-02-05T00:23:58.433Z,1015.55
2019-02-05T00:24:38.756Z,1015.56
2019-02-05T00:25:19.437Z,1015.58
2019-02-05T00:26:06.034Z,1015.57
2019-02-05T00:26:41.087Z,1015.59
2019-02-05T00:27:21.493Z,1015.59
2019-02-05T00:28:03.163Z,1015.56
2019-02-05T00:28:46.112Z,1015.54
2019-02-05T00:29:26.511Z,1015.5
2019-02-05T00:30:09.628Z,1015.49
2019-02-05T00:30:49.183Z,1015.52
2019-02-05T00:31:29.669Z,1015.53
2019-02-05T00:32:10.090Z,1015.57
2019-02-05T00:32:51.920Z,1015.53
2019-02-05T00:33:36.833Z,1015.54
2019-02-05T00:34:33.365Z,1015.61
2019-02-05T00:35:18.339Z,1015.59
2019-02-05T00:35:59.779Z,1015.6
2019-02-05T00:36:40.387Z,1015.57
2019-02-05T00:37:23.034Z,1015.55
2019-02-05T00:38:03.367Z,1015.54
2019-02-05T00:38:44.393Z,1015.59
2019-02-05T00:46:05.853Z,1015.73
2019-02-05T00:46:55.352Z,1015.72
2019-02-05T00:47:45.898Z,1015.74
2019-02-05T00:48:33.519Z,1015.77
2019-02-05T00:49:21.404Z,1015.74
2019-02-05T00:51:26.062Z,1015.67
2019-02-05T00:53:29.646Z,1015.66
2019-02-05T00:54:24.608Z,1015.65
2019-02-05T00:56:47.245Z,1015.7
2019-02-05T00:57:40.604Z,1015.68
2019-02-05T01:02:31.832Z,1015.72
2019-02-05T01:03:23.916Z,1015.68
2019-02-05T01:04:08.586Z,1015.65
2019-02-05T01:04:59.987Z,1015.64
2019-02-05T01:07:11.219Z,1015.62
2019-02-05T01:10:37.429Z,1015.67
2019-02-05T01:11:35.736Z,1015.72
2019-02-05T01:14:35.639Z,1015.73
2019-02-05T01:17:07.413Z,1015.67
2019-02-05T01:17:53.655Z,1015.66
2019-02-05T01:18:43.008Z,1015.68
2019-02-05T01:19:36.868Z,1015.73
2019-02-05T01:20:39.026Z,1015.71
2019-02-05T01:31:44.551Z,1015.71
2019-02-05T01:32:26.725Z,1015.69
2019-02-05T01:33:07.081Z,1015.7
2019-02-05T01:33:47.472Z,1015.66
2019-02-05T01:34:27.889Z,1015.66
2019-02-05T01:35:08.351Z,1015.7
2019-02-05T01:35:48.735Z,1015.68
2019-02-05T01:36:29.122Z,1015.72
2019-02-05T01:37:09.534Z,1015.76
2019-02-05T01:37:49.951Z,1015.76
2019-02-05T01:38:32.272Z,1015.78
2019-02-05T01:39:12.686Z,1015.78
2019-02-05T01:39:54.524Z,1015.8
2019-02-05T01:40:41.903Z,1015.85
2019-02-05T01:41:24.865Z,1015.81
2019-02-05T01:44:54.850Z,1015.75
2019-02-05T01:45:47.375Z,1015.78
2019-02-05T01:46:40.158Z,1015.79
2019-02-05T01:47:33.503Z,1015.78
2019-02-05T01:48:28.172Z,1015.78
2019-02-05T01:49:20.809Z,1015.76
2019-02-05T01:50:13.661Z,1015.76
2019-02-05T01:51:06.208Z,1015.77
2019-02-05T01:51:58.558Z,1015.8
2019-02-05T01:52:51.075Z,1015.76
2019-02-05T01:53:43.702Z,1015.76
2019-02-05T01:54:36.311Z,1015.76
2019-02-05T01:55:29.038Z,1015.77
2019-02-05T01:56:26.216Z,1015.76
2019-02-05T01:57:20.566Z,1015.76
2019-02-05T01:59:41.452Z,1015.83
2019-02-05T02:00:21.681Z,1015.86
2019-02-05T02:01:02.129Z,1015.84
2019-02-05T02:01:42.578Z,1015.9
2019-02-05T02:02:23.001Z,1015.87
2019-02-05T02:03:03.394Z,1015.88
2019-02-05T02:03:43.801Z,1015.9
2019-02-05T02:04:24.167Z,1015.9
2019-02-05T02:05:04.693Z,1015.87
2019-02-05T02:05:45.056Z,1015.91
2019-02-05T02:06:25.465Z,1015.95
2019-02-05T02:07:05.924Z,1015.91
2019-02-05T02:07:46.258Z,1015.92
2019-02-05T02:08:26.664Z,1015.95
2019-02-05T02:09:07.067Z,1015.91
2019-02-05T02:09:47.463Z,1015.97
2019-02-05T02:10:27.989Z,1015.97
2019-02-05T02:11:08.342Z,1015.94
2019-02-05T02:11:48.756Z,1015.98
2019-02-05T02:12:29.166Z,1015.97
2019-02-05T02:13:09.553Z,1015.97
2019-02-05T02:13:49.916Z,1015.98
2019-02-05T02:14:30.309Z,1015.92
2019-02-05T02:15:10.746Z,1015.91
2019-02-05T02:15:51.225Z,1015.91
2019-02-05T02:16:31.735Z,1015.94
2019-02-05T02:17:12.050Z,1015.91
2019-02-05T02:17:52.430Z,1015.89
2019-02-05T02:18:32.837Z,1015.94
2019-02-05T02:19:13.334Z,1015.94
2019-02-05T02:19:53.743Z,1015.93
2019-02-05T02:22:31.251Z,1015.93
2019-02-05T02:23:30.867Z,1015.96
2019-02-05T02:24:23.472Z,1015.93
2019-02-05T02:25:16.752Z,1015.94
2019-02-05T02:26:09.134Z,1015.96
2019-02-05T02:27:01.694Z,1015.99
2019-02-05T02:27:55.329Z,1015.95
2019-02-05T02:28:47.726Z,1015.92
2019-02-05T02:29:40.165Z,1015.91
2019-02-05T02:30:32.749Z,1015.96
2019-02-05T02:31:27.198Z,1015.96
2019-02-05T02:32:45.170Z,1015.97
2019-02-05T02:33:49.123Z,1015.92
2019-02-05T02:34:41.730Z,1015.96
2019-02-05T02:35:33.718Z,1015.95
2019-02-05T02:36:26.072Z,1015.91
2019-02-05T02:37:19.545Z,1015.94
2019-02-05T02:38:12.310Z,1015.94
2019-02-05T02:39:04.288Z,1015.93
2019-02-05T02:39:56.485Z,1015.92
2019-02-05T02:40:48.564Z,1015.92
2019-02-05T02:41:40.480Z,1015.96
2019-02-05T02:42:32.639Z,1015.97
2019-02-05T02:43:25.224Z,1016.02
2019-02-05T02:44:18.347Z,1016.03
2019-02-05T02:45:10.625Z,1015.95
2019-02-05T02:46:02.984Z,1016
2019-02-05T02:46:54.886Z,1015.97
2019-02-05T02:47:47.196Z,1016
2019-02-05T02:48:39.171Z,1016
2019-02-05T02:49:31.487Z,1015.99
2019-02-05T02:50:23.858Z,1015.98
2019-02-05T02:51:16.334Z,1015.93
2019-02-05T02:52:08.067Z,1015.96
2019-02-05T02:53:00.547Z,1015.93
2019-02-05T02:53:52.251Z,1015.96
2019-02-05T02:54:44.835Z,1015.95
2019-02-05T02:55:37.130Z,1015.94
2019-02-05T02:56:19.980Z,1015.94
2019-02-05T02:57:04.686Z,1015.94
2019-02-05T02:57:40.967Z,1015.92
2019-02-05T02:58:21.416Z,1015.92
2019-02-05T02:59:01.814Z,1015.93
2019-02-05T03:04:20.047Z,1015.95
2019-02-05T03:05:08.486Z,1015.97
2019-02-05T03:05:49.281Z,1015.96
2019-02-05T03:06:29.680Z,1015.94
2019-02-05T03:07:10.041Z,1015.96
2019-02-05T03:07:50.437Z,1015.94
2019-02-05T03:08:30.822Z,1015.97
2019-02-05T03:09:11.218Z,1015.92
2019-02-05T03:09:51.646Z,1015.94
2019-02-05T03:10:32.034Z,1015.93
2019-02-05T03:11:12.425Z,1015.97
2019-02-05T03:11:52.865Z,1015.95
2019-02-05T03:12:33.268Z,1015.97
2019-02-05T03:13:13.635Z,1015.98
2019-02-05T03:13:54.046Z,1016
2019-02-05T03:14:34.396Z,1015.99
2019-02-05T03:15:14.831Z,1015.99
2019-02-05T03:15:55.231Z,1016
2019-02-05T03:16:35.630Z,1015.97
2019-02-05T03:17:16.055Z,1015.98
2019-02-05T03:17:56.377Z,1015.94
2019-02-05T03:18:36.768Z,1016
2019-02-05T03:19:17.157Z,1015.98
2019-02-05T03:19:57.543Z,1016
2019-02-05T03:20:37.935Z,1016.02
2019-02-05T03:21:18.292Z,1016.01
2019-02-05T03:21:58.699Z,1016.06
2019-02-05T03:22:39.077Z,1016.09
2019-02-05T03:23:19.457Z,1016.09
2019-02-05T03:24:00.026Z,1016.06
2019-02-05T03:24:40.412Z,1016.09
2019-02-05T03:25:20.840Z,1016.1
2019-02-05T03:26:01.231Z,1016.09
2019-02-05T03:26:41.725Z,1016.11
2019-02-05T03:27:22.129Z,1016.06
2019-02-05T03:28:02.511Z,1016.07
2019-02-05T03:28:42.911Z,1016.03
2019-02-05T03:29:23.305Z,1016.07
2019-02-05T03:30:03.676Z,1016.08
2019-02-05T03:30:44.107Z,1016.11
2019-02-05T03:31:24.509Z,1016.13
2019-02-05T03:32:04.916Z,1016.18
2019-02-05T03:32:45.307Z,1016.21
2019-02-05T03:33:25.685Z,1016.17
2019-02-05T03:34:06.077Z,1016.21
2019-02-05T03:34:46.508Z,1016.22
2019-02-05T03:35:26.874Z,1016.21
2019-02-05T03:36:07.282Z,1016.17
2019-02-05T03:36:47.687Z,1016.21
2019-02-05T03:37:28.048Z,1016.19
2019-02-05T03:38:08.452Z,1016.19
2019-02-05T03:38:48.829Z,1016.17
2019-02-05T03:39:29.215Z,1016.17
2019-02-05T03:40:09.601Z,1016.14
2019-02-05T03:40:50.023Z,1016.12
2019-02-05T03:41:30.421Z,1016.12
2019-02-05T03:42:10.839Z,1016.07
2019-02-05T03:42:51.223Z,1016.1
2019-02-05T03:43:31.634Z,1016.07
2019-02-05T03:44:12.010Z,1016.05
2019-02-05T03:44:52.424Z,1016.05
2019-02-05T03:45:32.804Z,1016.05
2019-02-05T03:46:14.754Z,1016.03
2019-02-05T03:46:55.167Z,1016.03
2019-02-05T03:47:35.591Z,1016.04
2019-02-05T03:48:17.942Z,1016
2019-02-05T03:48:59.858Z,1016.04
2019-02-05T03:49:47.414Z,1016.07
2019-02-05T03:50:30.026Z,1016.05
2019-02-05T03:51:14.398Z,1016.01
2019-02-05T03:51:56.594Z,1016.02
2019-02-05T03:52:37.815Z,1016.01
2019-02-05T03:53:18.595Z,1015.99
2019-02-05T03:53:59.038Z,1016.03
2019-02-05T03:54:39.948Z,1016.02
2019-02-05T03:55:20.583Z,1016.02
2019-02-05T03:56:01.305Z,1016.05
2019-02-05T03:56:41.583Z,1016.02
2019-02-05T03:58:04.057Z,1016.02
2019-02-05T03:58:46.812Z,1016.02
2019-02-05T03:59:27.585Z,1016.03
2019-02-05T04:00:08.077Z,1016.05
2019-02-05T04:00:48.858Z,1016.05
2019-02-05T04:01:29.879Z,1016.09
2019-02-05T04:02:10.554Z,1016.08
2019-02-05T04:02:52.442Z,1016.11
2019-02-05T04:03:33.365Z,1016.13
2019-02-05T04:04:14.690Z,1016.18
2019-02-05T04:04:55.323Z,1016.15
2019-02-05T04:05:36.194Z,1016.19
2019-02-05T04:06:17.451Z,1016.22
2019-02-05T04:06:58.728Z,1016.2
2019-02-05T04:07:40.158Z,1016.17
2019-02-05T04:08:21.496Z,1016.19
2019-02-05T04:09:03.583Z,1016.2
2019-02-05T04:09:45.829Z,1016.21
2019-02-05T04:10:27.197Z,1016.19
2019-02-05T04:11:09.129Z,1016.2
2019-02-05T04:11:50.479Z,1016.2
2019-02-05T04:12:31.397Z,1016.17
2019-02-05T04:13:14.564Z,1016.23
2019-02-05T04:13:54.592Z,1016.25
2019-02-05T04:14:35.001Z,1016.25
2019-02-05T04:15:15.397Z,1016.27
2019-02-05T04:15:55.873Z,1016.27
2019-02-05T04:16:36.239Z,1016.26
2019-02-05T04:17:16.635Z,1016.27
2019-02-05T04:17:57.022Z,1016.26
2019-02-05T04:18:37.413Z,1016.32
2019-02-05T04:19:17.803Z,1016.26
2019-02-05T04:19:58.439Z,1016.28
2019-02-05T04:20:39.700Z,1016.24
2019-02-05T04:21:20.122Z,1016.23
2019-02-05T04:22:00.541Z,1016.23
2019-02-05T04:22:41.029Z,1016.2
2019-02-05T04:23:21.440Z,1016.18
2019-02-05T04:24:02.780Z,1016.22
2019-02-05T04:24:46.965Z,1016.19
2019-02-05T04:25:28.243Z,1016.19
2019-02-05T05:06:15.896Z,1016.21
2019-02-05T05:06:56.139Z,1016.22
2019-02-05T05:07:36.622Z,1016.23
2019-02-05T05:08:17.001Z,1016.24
2019-02-05T05:08:57.409Z,1016.2
2019-02-05T05:09:37.814Z,1016.25
2019-02-05T05:10:18.355Z,1016.22
2019-02-05T05:10:58.794Z,1016.21
2019-02-05T05:11:41.083Z,1016.19
2019-02-05T05:12:19.641Z,1016.2
2019-02-05T05:13:00.051Z,1016.25
2019-02-05T05:13:40.470Z,1016.26
2019-02-05T05:14:20.868Z,1016.23
2019-02-05T05:15:01.328Z,1016.24
2019-02-05T05:15:41.736Z,1016.27
2019-02-05T05:16:22.132Z,1016.29
2019-02-05T05:17:02.525Z,1016.33
2019-02-05T05:17:42.890Z,1016.34
2019-02-05T05:18:23.345Z,1016.34
2019-02-05T05:19:03.731Z,1016.36
2019-02-05T05:19:44.106Z,1016.37
2019-02-05T05:20:24.487Z,1016.38
2019-02-05T05:21:04.889Z,1016.34
2019-02-05T05:21:47.060Z,1016.34
2019-02-05T05:22:27.446Z,1016.34
2019-02-05T05:23:07.836Z,1016.36
2019-02-05T05:23:48.310Z,1016.37
2019-02-05T05:24:28.728Z,1016.34
2019-02-05T05:25:09.177Z,1016.39
2019-02-05T05:25:49.555Z,1016.37
2019-02-05T05:26:29.935Z,1016.39
2019-02-05T05:27:11.512Z,1016.4
2019-02-05T05:27:56.145Z,1016.37
2019-02-05T05:28:37.824Z,1016.32
2019-02-05T05:29:22.534Z,1016.38
2019-02-05T05:30:06.713Z,1016.33
2019-02-05T05:30:59.800Z,1016.33
2019-02-05T05:31:45.657Z,1016.33
2019-02-05T05:32:40.922Z,1016.36
2019-02-05T05:42:50.464Z,1016.38
2019-02-05T05:43:31.035Z,1016.41
2019-02-05T05:44:14.127Z,1016.4
2019-02-05T05:44:54.518Z,1016.41
2019-02-05T05:45:35.678Z,1016.38
2019-02-05T05:46:16.112Z,1016.42
2019-02-05T05:46:57.084Z,1016.45
2019-02-05T05:47:37.484Z,1016.45
2019-02-05T05:48:17.877Z,1016.45
2019-02-05T05:48:58.273Z,1016.44
2019-02-05T05:49:39.026Z,1016.42
2019-02-05T05:50:21.265Z,1016.43
2019-02-05T05:50:59.815Z,1016.43
2019-02-05T05:51:40.256Z,1016.46
2019-02-05T05:52:20.706Z,1016.43
2019-02-05T05:53:01.147Z,1016.44
2019-02-05T05:57:00.697Z,1016.43
2019-02-05T05:57:52.133Z,1016.47
2019-02-05T05:58:34.710Z,1016.48
2019-02-05T06:00:42.388Z,1016.41
2019-02-05T06:01:34.278Z,1016.44
2019-02-05T06:02:27.596Z,1016.43
2019-02-05T06:04:27.277Z,1016.48
2019-02-05T06:05:23.047Z,1016.49
2019-02-05T06:06:19.822Z,1016.48
2019-02-05T06:11:06.664Z,1016.5
2019-02-05T06:19:48.088Z,1016.56
2019-02-05T06:31:15.973Z,1016.58
2019-02-05T06:32:05.568Z,1016.55
2019-02-05T06:34:48.390Z,1016.63
2019-02-05T06:35:42.896Z,1016.62
2019-02-05T06:36:40.209Z,1016.63
2019-02-05T06:37:42.176Z,1016.67
2019-02-05T06:38:34.934Z,1016.66
2019-02-05T06:39:28.928Z,1016.67
2019-02-05T06:40:21.992Z,1016.69
2019-02-05T06:41:17.183Z,1016.71
2019-02-05T06:42:11.930Z,1016.73
2019-02-05T06:43:42.525Z,1016.67
2019-02-05T06:46:15.249Z,1016.74
2019-02-05T06:49:07.359Z,1016.81
2019-02-05T06:50:05.642Z,1016.78
2019-02-05T06:50:57.747Z,1016.81
2019-02-05T06:51:56.358Z,1016.77
2019-02-05T06:52:59.958Z,1016.82
2019-02-05T06:53:53.783Z,1016.85
2019-02-05T06:54:48.037Z,1016.82
2019-02-05T06:57:27.806Z,1016.86
2019-02-05T06:58:20.941Z,1016.87
2019-02-05T06:59:13.414Z,1016.84
2019-02-05T07:00:05.586Z,1016.9
2019-02-05T07:00:58.741Z,1016.93
2019-02-05T07:01:51.306Z,1016.95
2019-02-05T07:02:43.834Z,1017
2019-02-05T07:03:37.417Z,1016.96
2019-02-05T07:04:32.329Z,1016.96
2019-02-05T07:05:27.990Z,1016.99
2019-02-05T07:06:19.716Z,1017.01
2019-02-05T07:07:12.446Z,1017.05
2019-02-05T07:08:04.993Z,1017.03
2019-02-05T07:08:57.644Z,1017.02
2019-02-05T07:09:49.886Z,1017.05
2019-02-05T07:10:42.285Z,1017.07
2019-02-05T07:11:34.885Z,1017.04
2019-02-05T07:12:27.534Z,1017.03
2019-02-05T07:13:21.170Z,1017.02
2019-02-05T07:14:16.161Z,1017.01
2019-02-05T07:15:08.433Z,1017.05
2019-02-05T07:16:00.854Z,1017.05
2019-02-05T07:16:54.303Z,1017.05
2019-02-05T07:17:49.481Z,1017.05
2019-02-05T07:18:42.506Z,1017.06
2019-02-05T07:20:52.898Z,1017.1
2019-02-05T07:21:45.522Z,1017.09
2019-02-05T07:22:39.887Z,1017.13
2019-02-05T07:23:37.870Z,1017.18
2019-02-05T07:24:30.461Z,1017.18
2019-02-05T07:25:24.823Z,1017.24
2019-02-05T07:26:17.524Z,1017.22
2019-02-05T07:27:14.828Z,1017.21
2019-02-05T07:28:08.466Z,1017.23
2019-02-05T07:30:43.795Z,1017.23
2019-02-05T07:31:45.989Z,1017.14
2019-02-05T07:32:47.511Z,1017.21
2019-02-05T07:33:45.600Z,1017.19
2019-02-05T07:34:41.390Z,1017.24
2019-02-05T07:35:41.413Z,1017.21
2019-02-05T07:36:43.194Z,1017.26
2019-02-05T07:37:43.885Z,1017.31
2019-02-05T07:38:42.190Z,1017.32
2019-02-05T07:39:42.337Z,1017.33
2019-02-05T07:40:40.972Z,1017.35
2019-02-05T07:41:40.196Z,1017.36
2019-02-05T07:42:42.245Z,1017.39
2019-02-05T07:43:39.579Z,1017.37
2019-02-05T07:44:39.796Z,1017.38
2019-02-05T07:45:33.630Z,1017.4
2019-02-05T07:46:38.575Z,1017.43
2019-02-05T07:47:35.697Z,1017.4
2019-02-05T07:48:37.523Z,1017.4
2019-02-05T07:49:45.807Z,1017.41
2019-02-05T07:50:44.638Z,1017.44
2019-02-05T07:51:45.063Z,1017.45
2019-02-05T08:05:01.030Z,1017.54
2019-02-05T08:12:38.502Z,1017.62
2019-02-05T08:13:38.475Z,1017.63
2019-02-05T08:14:36.976Z,1017.57
2019-02-05T08:20:26.446Z,1017.7
2019-02-05T08:21:26.733Z,1017.73
2019-02-05T08:22:25.784Z,1017.74
2019-02-05T08:23:24.789Z,1017.78
2019-02-05T08:24:24.887Z,1017.8
2019-02-05T08:25:20.201Z,1017.79
2019-02-05T08:27:39.532Z,1017.8
2019-02-05T08:28:44.016Z,1017.8
2019-02-05T08:29:41.868Z,1017.84
2019-02-05T08:30:41.551Z,1017.85
2019-02-05T08:31:40.368Z,1017.83
2019-02-05T08:32:36.085Z,1017.86
2019-02-05T08:33:34.880Z,1017.84
2019-02-05T08:34:49.922Z,1017.93
2019-02-05T08:35:49.874Z,1017.95
2019-02-05T08:36:44.615Z,1017.95
2019-02-05T08:37:46.882Z,1017.99
2019-02-05T08:38:54.051Z,1018
2019-02-05T08:39:58.700Z,1018
2019-02-05T08:41:04.435Z,1017.98
2019-02-05T08:42:14.092Z,1017.99
2019-02-05T08:43:14.511Z,1017.97
2019-02-05T08:44:16.792Z,1018
2019-02-05T08:45:15.132Z,1017.99
2019-02-05T08:46:10.085Z,1017.99
2019-02-05T08:47:03.941Z,1017.98
2019-02-05T08:47:57.540Z,1018.01
2019-02-05T08:48:57.276Z,1018.02
2019-02-05T08:49:52.815Z,1018.03
2019-02-05T08:50:44.734Z,1018.06
2019-02-05T08:51:42.533Z,1018.08
2019-02-05T08:52:38.247Z,1018.07
2019-02-05T08:53:40.485Z,1018.05
2019-02-05T08:56:33.107Z,1018.02
2019-02-05T08:57:33.531Z,1018.03
2019-02-05T08:58:39.070Z,1018.03
2019-02-05T08:59:33.833Z,1018.02
2019-02-05T09:00:31.061Z,1018
2019-02-05T09:01:29.203Z,1018
2019-02-05T09:02:22.600Z,1017.98
2019-02-05T09:03:17.972Z,1018.01
2019-02-05T09:04:18.216Z,1017.97
2019-02-05T09:05:12.694Z,1018
2019-02-05T09:06:12.129Z,1018.02
2019-02-05T09:07:09.491Z,1018.1
2019-02-05T09:08:11.359Z,1018.06
2019-02-05T09:09:12.827Z,1018.13
2019-02-05T09:10:10.144Z,1018.18
2019-02-05T09:11:07.274Z,1018.15
2019-02-05T09:12:08.270Z,1018.24
2019-02-05T09:20:16.912Z,1018.23
2019-02-05T09:21:10.751Z,1018.21
2019-02-05T09:22:03.737Z,1018.22
2019-02-05T09:23:00.527Z,1018.22
2019-02-05T09:25:04.618Z,1018.23
2019-02-05T09:25:58.163Z,1018.24
2019-02-05T09:26:51.797Z,1018.19
2019-02-05T09:27:49.773Z,1018.19
2019-02-05T09:28:48.702Z,1018.21
2019-02-05T09:29:43.610Z,1018.24
2019-02-05T09:30:36.219Z,1018.26
2019-02-05T09:31:32.264Z,1018.25
2019-02-05T09:32:34.964Z,1018.28
2019-02-05T09:33:26.486Z,1018.25
2019-02-05T09:34:20.426Z,1018.23
2019-02-05T09:35:16.870Z,1018.26
2019-02-05T09:36:21.749Z,1018.25
2019-02-05T09:37:20.724Z,1018.24
2019-02-05T09:46:31.035Z,1018.3
2019-02-05T09:47:26.934Z,1018.3
2019-02-05T09:48:24.568Z,1017.97
2019-02-05T09:49:22.428Z,1018.32
2019-02-05T09:51:29.251Z,1018.31
2019-02-05T09:52:26.807Z,1018.34
2019-02-05T09:53:27.750Z,1018.31
2019-02-05T09:54:27.390Z,1018.35
2019-02-05T09:55:24.320Z,1018.37
2019-02-05T09:56:20.870Z,1018.38
2019-02-05T09:57:18.071Z,1018.41
2019-02-05T10:00:12.616Z,1018.42
2019-02-05T10:01:06.201Z,1018.44
2019-02-05T10:02:02.878Z,1018.44
2019-02-05T10:03:01.026Z,1018.43
2019-02-05T10:03:54.734Z,1018.5
2019-02-05T10:04:48.648Z,1018.49
2019-02-05T10:05:44.253Z,1018.52
2019-02-05T10:06:38.953Z,1018.5
2019-02-05T10:07:34.627Z,1018.49
2019-02-05T10:08:27.700Z,1018.52
2019-02-05T10:09:22.066Z,1018.51
2019-02-05T10:10:15.609Z,1018.52
2019-02-05T10:11:07.468Z,1018.51
2019-02-05T10:12:04.585Z,1018.53
2019-02-05T10:13:04.080Z,1018.54
2019-02-05T10:13:59.874Z,1018.49
2019-02-05T10:14:58.399Z,1018.52
2019-02-05T10:15:52.826Z,1018.51
2019-02-05T10:16:52.396Z,1018.55
2019-02-05T10:17:50.775Z,1018.58
2019-02-05T10:18:57.372Z,1018.53
2019-02-05T10:20:09.236Z,1018.58
2019-02-05T10:25:56.096Z,1018.62
2019-02-05T10:26:49.208Z,1018.63
2019-02-05T10:27:46.220Z,1018.63
2019-02-05T11:08:11.993Z,1018.43
2019-02-05T11:09:07.694Z,1018.47
2019-02-05T11:16:30.616Z,1018.49
2019-02-05T11:17:38.677Z,1018.53
2019-02-05T11:20:10.581Z,1018.51
2019-02-05T11:23:03.343Z,1018.51
2019-02-05T11:23:59.150Z,1018.51
2019-02-05T11:25:19.882Z,1018.48
2019-02-05T11:26:21.531Z,1018.47
2019-02-05T11:27:15.350Z,1018.44
2019-02-05T11:28:12.061Z,1018.49
2019-02-05T11:29:06.647Z,1018.49
2019-02-05T11:30:02.151Z,1018.5
2019-02-05T11:30:55.938Z,1018.51
2019-02-05T11:31:52.017Z,1018.52
2019-02-05T11:32:45.301Z,1018.54
2019-02-05T11:33:42.392Z,1018.57
2019-02-05T11:34:36.001Z,1018.56
2019-02-05T11:35:30.498Z,1018.58
2019-02-05T11:36:24.741Z,1018.61
2019-02-05T11:38:29.716Z,1018.52
2019-02-05T11:39:22.370Z,1018.54
2019-02-05T11:40:17.279Z,1018.52
2019-02-05T11:41:13.597Z,1018.5
2019-02-05T11:42:07.718Z,1018.58
2019-02-05T11:43:06.653Z,1018.59
2019-02-05T11:43:59.098Z,1018.6
2019-02-05T11:44:53.693Z,1018.57
2019-02-05T11:45:49.239Z,1018.58
2019-02-05T17:26:29.356Z,1018.08
2019-02-05T17:31:50.337Z,1018.01
2019-02-05T17:39:47.968Z,1018.05
2019-02-05T17:40:31.155Z,1018.06
2019-02-05T17:41:15.088Z,1018.04
2019-02-05T17:41:57.657Z,1018.03
2019-02-05T17:42:38.727Z,1018.09
2019-02-05T17:43:19.895Z,1018.07
2019-02-05T17:44:02.081Z,1018.08
2019-02-05T17:44:47.961Z,1018.07
2019-02-05T17:49:08.518Z,1018.02
2019-02-05T17:51:15.971Z,1018.03
2019-02-05T17:54:54.099Z,1018.01
2019-02-05T17:59:01.298Z,1017.99
2019-02-05T17:59:58.719Z,1017.97
2019-02-05T23:13:55.363Z,1017.11
2019-02-05T23:21:12.615Z,1017.06
2019-02-05T23:23:09.763Z,1017.05
2019-02-05T23:25:19.182Z,1017.12
2019-02-05T23:27:16.020Z,1017.09
2019-02-05T23:28:06.481Z,1017.08
2019-02-05T23:28:58.974Z,1017.07
2019-02-05T23:31:32.171Z,1017.05
2019-02-05T23:44:18.513Z,1017.12
